Time;durP1;ratioP1;P1;durP2;ratioP2;P2;SDS_P1;SDS_P2;PMS_P1;PMS_P2;Temp;Humidity;BMP_temperature;BMP_pressure;BME280_temperature;BME280_humidity;BME280_pressure;Samples;Min_cycle;Max_cycle;Signal;HPM_P1;HPM_P2
2023/04/23 00:01:27;;;;;;;13.33;10.80;;;18.30;66.90;;;;;;5082462;28;20200;-46
2023/04/23 00:03:59;;;;;;;13.17;10.97;;;18.30;66.90;;;;;;5082328;28;20755;-46
2023/04/23 00:06:34;;;;;;;12.70;10.50;;;18.30;66.80;;;;;;5089678;28;20247;-46
2023/04/23 00:09:08;;;;;;;12.20;10.37;;;18.30;66.80;;;;;;5086581;28;20519;-46
2023/04/23 00:11:37;;;;;;;11.47;10.27;;;18.30;66.80;;;;;;5087505;28;20192;-46
2023/04/23 00:14:08;;;;;;;12.40;11.10;;;18.30;66.80;;;;;;5087480;28;20213;-46
2023/04/23 00:16:47;;;;;;;14.13;10.17;;;18.30;66.80;;;;;;5089555;28;20201;-46
2023/04/23 00:19:16;;;;;;;11.40;10.20;;;18.30;67.00;;;;;;5087168;28;20546;-47
2023/04/23 00:21:48;;;;;;;12.50;10.40;;;18.20;66.70;;;;;;5089763;28;20192;-46
2023/04/23 00:24:17;;;;;;;12.83;10.47;;;18.20;66.80;;;;;;5092809;28;20235;-46
2023/04/23 00:26:46;;;;;;;12.43;10.60;;;18.30;66.90;;;;;;5086797;28;20792;-46
2023/04/23 00:29:15;;;;;;;11.53;10.43;;;18.20;66.80;;;;;;5087485;28;20187;-46
2023/04/23 00:31:45;;;;;;;12.33;10.47;;;18.20;66.90;;;;;;5088317;28;20265;-46
2023/04/23 00:34:14;;;;;;;12.83;10.83;;;18.30;66.80;;;;;;5089163;28;20189;-47
2023/04/23 00:36:50;;;;;;;11.50;10.30;;;18.20;67.50;;;;;;5089182;28;20654;-47
2023/04/23 00:39:18;;;;;;;11.90;10.60;;;18.20;66.90;;;;;;5080514;28;20213;-46
2023/04/23 00:41:49;;;;;;;12.97;10.27;;;18.20;66.70;;;;;;5068101;28;20208;-46
2023/04/23 00:44:23;;;;;;;13.60;10.77;;;18.20;66.80;;;;;;5085579;28;20229;-47
2023/04/23 00:46:52;;;;;;;11.67;10.47;;;18.20;66.80;;;;;;5088975;28;20217;-46
2023/04/23 00:49:21;;;;;;;12.07;10.77;;;18.20;66.80;;;;;;5071685;28;20235;-46
2023/04/23 00:51:51;;;;;;;11.87;10.67;;;18.20;66.70;;;;;;5071555;28;20200;-46
2023/04/23 00:54:22;;;;;;;11.57;10.03;;;18.20;66.70;;;;;;5086535;28;20196;-47
2023/04/23 00:56:50;;;;;;;11.73;10.50;;;18.20;66.50;;;;;;5090462;28;20205;-46
2023/04/23 00:59:20;;;;;;;12.40;10.93;;;18.20;66.70;;;;;;5052003;28;20213;-46
2023/04/23 01:01:50;;;;;;;12.20;10.43;;;18.20;66.60;;;;;;5084238;28;20252;-46
2023/04/23 01:04:21;;;;;;;12.63;9.97;;;18.20;66.60;;;;;;5088630;28;20261;-47
2023/04/23 01:06:51;;;;;;;12.07;10.80;;;18.20;66.60;;;;;;5087542;28;20208;-46
2023/04/23 01:09:26;;;;;;;11.37;10.17;;;18.20;66.60;;;;;;5088739;28;20189;-46
2023/04/23 01:12:01;;;;;;;14.13;11.27;;;18.20;66.60;;;;;;5059490;28;20577;-47
2023/04/23 01:14:33;;;;;;;11.10;9.90;;;18.20;66.40;;;;;;5086341;28;20209;-46
2023/04/23 01:17:07;;;;;;;11.70;9.70;;;18.20;66.50;;;;;;5066163;28;20560;-46
2023/04/23 01:19:39;;;;;;;11.23;10.03;;;18.20;66.50;;;;;;5086452;28;20197;-46
2023/04/23 01:22:12;;;;;;;11.30;9.50;;;18.20;66.50;;;;;;5045802;28;20201;-46
2023/04/23 01:24:44;;;;;;;10.53;9.43;;;18.20;66.40;;;;;;5088771;28;20193;-46
2023/04/23 01:27:18;;;;;;;9.67;8.67;;;18.20;66.30;;;;;;5066703;28;20484;-46
2023/04/23 01:29:48;;;;;;;9.73;8.73;;;18.20;66.40;;;;;;5071744;28;20496;-46
2023/04/23 01:32:20;;;;;;;12.50;8.93;;;18.20;66.20;;;;;;5071434;28;20197;-46
2023/04/23 01:34:53;;;;;;;10.87;8.60;;;18.20;66.20;;;;;;5088195;28;20232;-47
2023/04/23 01:37:30;;;;;;;10.03;8.97;;;18.10;66.20;;;;;;5082168;28;20216;-46
2023/04/23 01:40:10;;;;;;;11.23;9.03;;;18.10;66.10;;;;;;5088506;28;20184;-46
2023/04/23 01:42:40;;;;;;;9.30;8.40;;;18.10;66.10;;;;;;5088865;28;20196;-46
2023/04/23 01:45:10;;;;;;;10.17;8.37;;;18.10;66.10;;;;;;5086868;28;20204;-46
2023/04/23 01:47:43;;;;;;;9.67;8.00;;;18.10;66.10;;;;;;5088124;28;20219;-46
2023/04/23 01:50:14;;;;;;;9.50;8.50;;;18.10;66.00;;;;;;5095114;28;20205;-46
2023/04/23 01:52:45;;;;;;;10.17;9.00;;;18.10;66.10;;;;;;5080687;28;20204;-46
2023/04/23 01:55:22;;;;;;;9.33;7.67;;;18.10;66.00;;;;;;5090192;28;20200;-46
2023/04/23 01:57:52;;;;;;;10.07;8.10;;;18.10;66.00;;;;;;5091039;28;20204;-46
2023/04/23 02:00:23;;;;;;;9.80;8.80;;;18.10;65.90;;;;;;5092087;28;20591;-46
2023/04/23 02:02:53;;;;;;;10.53;8.77;;;18.10;66.00;;;;;;5082574;28;20202;-46
2023/04/23 02:05:24;;;;;;;9.67;7.70;;;18.10;66.00;;;;;;5084253;28;20197;-46
2023/04/23 02:07:59;;;;;;;8.60;7.70;;;18.10;66.00;;;;;;5075076;28;20213;-46
2023/04/23 02:10:29;;;;;;;8.40;7.20;;;18.10;66.00;;;;;;5085466;28;20201;-46
2023/04/23 02:13:00;;;;;;;8.60;7.53;;;18.10;65.90;;;;;;5075871;28;20213;-46
2023/04/23 02:15:32;;;;;;;8.27;7.47;;;18.10;65.90;;;;;;5062340;28;20201;-46
2023/04/23 02:18:02;;;;;;;7.67;6.87;;;18.00;65.90;;;;;;5088212;28;20201;-46
2023/04/23 02:20:30;;;;;;;8.57;6.83;;;18.10;65.80;;;;;;5091978;28;20583;-46
2023/04/23 02:23:02;;;;;;;10.30;7.40;;;18.00;65.80;;;;;;5088221;28;20696;-46
2023/04/23 02:25:33;;;;;;;7.93;6.80;;;18.00;65.80;;;;;;5089023;28;20208;-46
2023/04/23 02:28:06;;;;;;;9.00;6.90;;;18.10;65.80;;;;;;5074331;28;20228;-46
2023/04/23 02:30:35;;;;;;;7.97;6.60;;;18.00;65.70;;;;;;5074052;28;20186;-46
2023/04/23 02:33:07;;;;;;;8.97;6.67;;;18.00;65.70;;;;;;5089560;28;20555;-46
2023/04/23 02:35:40;;;;;;;7.13;6.43;;;18.00;65.80;;;;;;5072808;28;20233;-46
2023/04/23 02:38:09;;;;;;;8.40;6.70;;;18.10;65.80;;;;;;5082573;28;20213;-46
2023/04/23 02:40:39;;;;;;;7.87;6.80;;;18.00;65.70;;;;;;5091915;28;20212;-46
2023/04/23 02:43:11;;;;;;;6.77;6.07;;;18.00;65.70;;;;;;5088553;28;20217;-46
2023/04/23 02:45:54;;;;;;;6.60;5.90;;;18.00;65.70;;;;;;5082626;28;20216;-46
2023/04/23 02:48:28;;;;;;;7.27;6.53;;;18.00;65.60;;;;;;5090932;28;20189;-46
2023/04/23 02:50:58;;;;;;;7.40;6.20;;;18.00;65.70;;;;;;5085558;28;20717;-46
2023/04/23 02:53:28;;;;;;;7.67;6.47;;;18.00;65.60;;;;;;5086079;28;20188;-47
2023/04/23 02:55:58;;;;;;;6.63;5.93;;;18.00;65.70;;;;;;5089874;28;20607;-46
2023/04/23 02:58:29;;;;;;;6.83;6.13;;;18.00;65.70;;;;;;5082103;28;20188;-46
2023/04/23 03:00:58;;;;;;;6.67;6.03;;;18.00;65.70;;;;;;5068555;28;20197;-47
2023/04/23 03:03:47;;;;;;;6.57;5.87;;;18.00;65.70;;;;;;5050588;28;20201;-46
2023/04/23 03:06:23;;;;;;;6.33;5.73;;;18.00;65.60;;;;;;5073694;28;20193;-47
2023/04/23 03:08:55;;;;;;;6.30;5.70;;;18.00;65.70;;;;;;5065359;28;20684;-46
2023/04/23 03:11:22;;;;;;;6.10;5.50;;;18.00;65.70;;;;;;5090357;28;20316;-46
2023/04/23 03:13:55;;;;;;;6.90;6.20;;;18.00;65.70;;;;;;5087537;28;20698;-46
2023/04/23 03:16:28;;;;;;;6.00;5.40;;;18.00;65.70;;;;;;5091113;28;20193;-46
2023/04/23 03:19:00;;;;;;;5.83;5.13;;;18.00;65.70;;;;;;5071236;28;20188;-46
2023/04/23 03:21:28;;;;;;;6.00;5.17;;;18.00;65.80;;;;;;5086908;28;20189;-46
2023/04/23 03:23:56;;;;;;;6.10;5.50;;;18.00;65.60;;;;;;5090108;28;20185;-46
2023/04/23 03:26:28;;;;;;;5.73;5.10;;;18.00;65.60;;;;;;5086594;28;20433;-46
2023/04/23 03:28:58;;;;;;;6.13;5.53;;;18.00;65.60;;;;;;5087561;28;20197;-46
2023/04/23 03:31:28;;;;;;;6.77;5.73;;;18.00;65.60;;;;;;5073128;28;20195;-46
2023/04/23 03:34:03;;;;;;;5.93;5.33;;;18.00;65.60;;;;;;5090166;28;20607;-46
2023/04/23 03:36:33;;;;;;;5.83;5.23;;;18.00;65.50;;;;;;5078733;28;20225;-46
2023/04/23 03:39:03;;;;;;;5.23;4.73;;;18.00;65.60;;;;;;5071750;28;20559;-46
2023/04/23 03:41:32;;;;;;;6.00;5.40;;;18.00;65.60;;;;;;5091037;28;20201;-46
2023/04/23 03:44:08;;;;;;;5.27;4.77;;;17.90;65.50;;;;;;5090945;28;20222;-46
2023/04/23 03:46:39;;;;;;;5.10;4.70;;;17.90;65.50;;;;;;5090342;28;20250;-46
2023/04/23 03:49:08;;;;;;;4.77;4.37;;;17.90;65.60;;;;;;5084946;28;20238;-46
2023/04/23 03:51:37;;;;;;;5.63;4.43;;;17.90;65.60;;;;;;5092587;28;20698;-46
2023/04/23 03:54:07;;;;;;;5.27;4.77;;;18.00;65.60;;;;;;5106451;28;20373;-47
2023/04/23 03:56:39;;;;;;;5.00;4.60;;;17.90;65.50;;;;;;5093493;28;20197;-46
2023/04/23 03:59:09;;;;;;;4.43;4.03;;;17.90;65.60;;;;;;5087764;28;20201;-46
2023/04/23 04:01:43;;;;;;;4.73;4.23;;;18.00;65.60;;;;;;5087423;28;20622;-46
2023/04/23 04:04:14;;;;;;;4.57;4.17;;;17.90;65.60;;;;;;5088751;28;20208;-46
2023/04/23 04:06:48;;;;;;;4.90;4.40;;;17.90;65.50;;;;;;5072884;28;20201;-46
2023/04/23 04:09:20;;;;;;;5.93;5.10;;;17.90;65.50;;;;;;5104740;28;20192;-46
2023/04/23 04:11:54;;;;;;;4.80;4.30;;;17.90;65.40;;;;;;5109774;28;20641;-46
2023/04/23 04:14:25;;;;;;;5.00;4.17;;;17.90;65.40;;;;;;5106879;28;20646;-46
2023/04/23 04:16:56;;;;;;;4.93;4.20;;;17.90;65.40;;;;;;5103325;28;20197;-48
2023/04/23 04:19:29;;;;;;;4.43;3.77;;;17.90;65.40;;;;;;5086019;28;20242;-48
2023/04/23 04:22:02;;;;;;;4.57;4.13;;;18.00;65.30;;;;;;5100824;28;20780;-47
2023/04/23 04:24:34;;;;;;;4.70;4.20;;;17.90;65.30;;;;;;5089531;28;20230;-46
2023/04/23 04:27:05;;;;;;;5.10;4.60;;;17.90;65.20;;;;;;5093081;28;20262;-47
2023/04/23 04:29:36;;;;;;;5.07;4.57;;;17.90;65.30;;;;;;5090109;28;20193;-47
2023/04/23 04:32:09;;;;;;;4.40;4.00;;;17.90;65.20;;;;;;5093563;28;20247;-47
2023/04/23 04:34:39;;;;;;;4.90;4.40;;;17.90;65.20;;;;;;5066054;28;20204;-47
2023/04/23 04:37:15;;;;;;;4.40;4.03;;;17.90;65.20;;;;;;5086856;28;20220;-47
2023/04/23 04:39:53;;;;;;;4.27;3.87;;;17.90;65.20;;;;;;5090594;28;20697;-47
2023/04/23 04:42:26;;;;;;;5.03;4.07;;;17.90;65.20;;;;;;5074313;28;20307;-48
2023/04/23 04:44:58;;;;;;;4.23;3.83;;;17.90;65.20;;;;;;5072375;28;20188;-48
2023/04/23 04:47:28;;;;;;;4.43;4.03;;;17.90;65.10;;;;;;5084675;28;20220;-47
2023/04/23 04:50:00;;;;;;;4.77;4.37;;;17.90;65.10;;;;;;5089759;28;20669;-48
2023/04/23 04:52:29;;;;;;;4.00;3.60;;;17.90;65.00;;;;;;5090705;28;20193;-48
2023/04/23 04:55:00;;;;;;;4.77;4.20;;;17.90;65.00;;;;;;5115148;27;20249;-47
2023/04/23 04:57:32;;;;;;;4.47;4.07;;;17.90;64.90;;;;;;5077401;28;20212;-48
2023/04/23 05:00:23;;;;;;;4.60;4.20;;;17.90;64.90;;;;;;5084349;28;20229;-48
2023/04/23 05:02:53;;;;;;;4.10;3.70;;;17.90;64.80;;;;;;5083964;28;20205;-47
2023/04/23 05:05:23;;;;;;;4.77;4.00;;;17.90;64.90;;;;;;5082204;28;20219;-47
2023/04/23 05:07:53;;;;;;;4.27;3.87;;;17.80;64.80;;;;;;5081392;28;20216;-47
2023/04/23 05:10:21;;;;;;;4.60;3.97;;;17.90;64.80;;;;;;5111913;28;20196;-47
2023/04/23 05:12:52;;;;;;;4.90;4.23;;;17.80;64.80;;;;;;5097006;28;20660;-47
2023/04/23 05:15:29;;;;;;;5.73;3.80;;;17.80;64.70;;;;;;5111286;28;20195;-47
2023/04/23 05:18:03;;;;;;;4.43;4.03;;;17.90;64.80;;;;;;5094667;28;20200;-47
2023/04/23 05:20:36;;;;;;;4.67;4.27;;;17.90;64.80;;;;;;5077957;28;20196;-48
2023/04/23 05:23:08;;;;;;;5.50;4.10;;;17.90;64.80;;;;;;5090208;28;20196;-47
2023/04/23 05:25:37;;;;;;;5.23;4.23;;;17.90;64.80;;;;;;5093217;28;20213;-47
2023/04/23 05:28:09;;;;;;;5.20;4.00;;;17.90;64.90;;;;;;5097217;28;20227;-47
2023/04/23 05:30:38;;;;;;;4.93;4.07;;;17.90;64.80;;;;;;5095598;28;20200;-47
2023/04/23 05:33:12;;;;;;;4.07;3.77;;;17.90;64.80;;;;;;5091307;28;20517;-47
2023/04/23 05:35:46;;;;;;;4.50;4.10;;;17.90;64.80;;;;;;5106018;28;20228;-47
2023/04/23 05:38:17;;;;;;;4.17;3.60;;;17.80;64.70;;;;;;5104289;28;20268;-47
2023/04/23 05:40:46;;;;;;;4.33;3.93;;;17.90;64.90;;;;;;5094480;28;20219;-47
2023/04/23 05:43:14;;;;;;;6.83;4.10;;;17.80;64.70;;;;;;5101397;28;20192;-47
2023/04/23 05:45:48;;;;;;;5.17;3.93;;;17.90;64.80;;;;;;5113252;28;20626;-47
2023/04/23 05:48:22;;;;;;;4.23;3.83;;;17.90;64.70;;;;;;5103248;28;20243;-47
2023/04/23 05:50:52;;;;;;;4.93;4.43;;;17.80;64.60;;;;;;5102535;27;20726;-47
2023/04/23 05:53:21;;;;;;;4.70;4.30;;;17.90;64.70;;;;;;5091510;28;20204;-47
2023/04/23 05:55:52;;;;;;;4.30;3.90;;;17.80;64.70;;;;;;5108547;28;20192;-47
2023/04/23 05:58:23;;;;;;;4.63;4.10;;;17.80;64.60;;;;;;5106196;28;20226;-47
2023/04/23 06:00:52;;;;;;;5.93;3.50;;;17.80;64.60;;;;;;5090572;28;20193;-47
2023/04/23 06:03:20;;;;;;;4.47;4.07;;;17.80;64.70;;;;;;5098397;28;20239;-47
2023/04/23 06:05:52;;;;;;;4.63;3.83;;;17.90;64.70;;;;;;5098397;28;20216;-47
2023/04/23 06:08:25;;;;;;;4.00;3.60;;;17.80;64.60;;;;;;5092194;28;20227;-47
2023/04/23 06:10:57;;;;;;;4.40;4.00;;;17.90;65.30;;;;;;5090025;28;20189;-47
2023/04/23 06:13:27;;;;;;;4.70;4.30;;;17.90;64.60;;;;;;5089476;28;20220;-47
2023/04/23 06:15:59;;;;;;;4.97;4.40;;;17.90;64.50;;;;;;5074538;28;20189;-47
2023/04/23 06:18:30;;;;;;;4.73;4.23;;;17.90;64.50;;;;;;5073654;28;20211;-47
2023/04/23 06:21:03;;;;;;;4.77;4.27;;;17.90;64.40;;;;;;5092245;28;20203;-47
2023/04/23 06:23:36;;;;;;;4.50;4.07;;;17.90;64.40;;;;;;5095849;28;20551;-47
2023/04/23 06:26:09;;;;;;;5.70;4.47;;;17.90;64.30;;;;;;5095780;28;20650;-47
2023/04/23 06:28:46;;;;;;;4.63;4.23;;;17.90;64.30;;;;;;5099361;28;20205;-47
2023/04/23 06:31:18;;;;;;;4.20;3.90;;;17.90;64.40;;;;;;5100911;28;20187;-47
2023/04/23 06:33:49;;;;;;;4.43;3.93;;;17.90;64.40;;;;;;5099764;28;20204;-47
2023/04/23 06:36:20;;;;;;;4.23;3.83;;;17.90;64.30;;;;;;5102320;28;20472;-47
2023/04/23 06:38:51;;;;;;;4.37;3.97;;;17.80;64.30;;;;;;5095770;28;20220;-47
2023/04/23 06:41:21;;;;;;;3.93;3.53;;;17.90;64.40;;;;;;5101222;28;20204;-47
2023/04/23 06:43:52;;;;;;;4.37;3.97;;;17.90;64.40;;;;;;5063813;28;20260;-47
2023/04/23 06:46:24;;;;;;;4.70;4.30;;;17.90;64.20;;;;;;5077532;28;20232;-48
2023/04/23 06:48:51;;;;;;;3.77;3.47;;;17.90;64.40;;;;;;5087878;28;20243;-47
2023/04/23 06:51:20;;;;;;;4.33;3.93;;;17.90;64.20;;;;;;5093775;28;20204;-47
2023/04/23 06:53:57;;;;;;;5.73;4.20;;;17.90;64.10;;;;;;5093380;28;20193;-47
2023/04/23 06:56:26;;;;;;;4.60;4.20;;;17.90;64.10;;;;;;5100673;28;20243;-47
2023/04/23 06:58:55;;;;;;;4.77;4.30;;;17.90;64.00;;;;;;5093888;28;20193;-47
2023/04/23 07:01:26;;;;;;;4.10;3.70;;;17.90;64.00;;;;;;5098227;28;20236;-47
2023/04/23 07:03:57;;;;;;;4.43;4.03;;;17.90;64.00;;;;;;5078773;28;20196;-47
2023/04/23 07:06:30;;;;;;;4.33;3.93;;;17.90;64.00;;;;;;5090536;28;20200;-47
2023/04/23 07:09:01;;;;;;;4.93;4.03;;;17.90;64.00;;;;;;5087432;28;20220;-47
2023/04/23 07:11:30;;;;;;;4.03;3.73;;;17.90;64.00;;;;;;5103401;28;20523;-47
2023/04/23 07:13:59;;;;;;;6.53;4.13;;;17.90;63.90;;;;;;5083239;28;20224;-47
2023/04/23 07:16:32;;;;;;;4.00;3.60;;;17.90;64.00;;;;;;5060937;28;20262;-47
2023/04/23 07:19:02;;;;;;;4.27;3.77;;;17.90;63.90;;;;;;5098766;28;20657;-47
2023/04/23 07:21:33;;;;;;;3.90;3.53;;;17.90;64.00;;;;;;5093128;28;20289;-47
2023/04/23 07:24:05;;;;;;;5.57;3.80;;;17.90;64.10;;;;;;5077946;28;20191;-47
2023/04/23 07:26:47;;;;;;;4.93;3.80;;;18.00;64.60;;;;;;5095330;27;20622;-47
2023/04/23 07:29:18;;;;;;;4.30;3.90;;;18.00;64.10;;;;;;5090512;28;20419;-47
2023/04/23 07:31:48;;;;;;;5.43;3.67;;;18.00;64.20;;;;;;5096772;28;20190;-47
2023/04/23 07:34:18;;;;;;;5.37;3.73;;;18.10;64.30;;;;;;5102072;28;20196;-47
2023/04/23 07:36:49;;;;;;;4.03;3.53;;;18.10;64.20;;;;;;4803965;28;8358594;-46
2023/04/23 07:39:32;;;;;;;3.80;3.30;;;18.20;64.20;;;;;;5082660;28;20271;-47
2023/04/23 07:42:06;;;;;;;5.70;3.53;;;18.20;64.60;;;;;;5077355;28;20234;-46
2023/04/23 07:44:35;;;;;;;5.73;3.10;;;18.30;63.80;;;;;;5099742;28;20204;-46
2023/04/23 07:47:08;;;;;;;3.90;3.17;;;18.40;63.50;;;;;;5097078;28;20257;-46
2023/04/23 07:49:42;;;;;;;7.30;2.90;;;18.50;63.10;;;;;;5092873;28;20552;-46
2023/04/23 07:52:15;;;;;;;4.83;2.93;;;18.60;63.10;;;;;;5090102;28;20235;-47
2023/04/23 07:54:45;;;;;;;8.13;3.00;;;18.70;62.50;;;;;;5098795;28;20196;-47
2023/04/23 07:57:18;;;;;;;7.47;2.83;;;18.70;62.50;;;;;;5094545;28;20208;-47
2023/04/23 07:59:54;;;;;;;7.00;2.53;;;18.80;62.60;;;;;;5092315;28;20188;-47
2023/04/23 08:02:25;;;;;;;3.50;2.33;;;18.90;62.30;;;;;;5093306;28;20201;-47
2023/04/23 08:04:56;;;;;;;2.73;2.50;;;18.90;62.20;;;;;;5088422;28;20242;-47
2023/04/23 08:07:24;;;;;;;4.57;2.33;;;18.90;62.00;;;;;;5090301;28;20723;-47
2023/04/23 08:09:58;;;;;;;2.80;2.33;;;19.00;62.10;;;;;;5088867;28;20200;-47
2023/04/23 08:12:28;;;;;;;3.77;2.40;;;19.10;62.10;;;;;;5092460;28;20197;-47
2023/04/23 08:15:05;;;;;;;4.97;2.40;;;19.10;61.80;;;;;;5080646;28;20257;-47
2023/04/23 08:17:38;;;;;;;4.53;2.50;;;19.20;61.50;;;;;;5076916;28;20219;-47
2023/04/23 08:20:14;;;;;;;2.90;2.50;;;19.20;61.70;;;;;;5095789;28;20197;-47
2023/04/23 08:22:44;;;;;;;2.80;2.17;;;19.30;61.50;;;;;;5101041;28;20193;-48
2023/04/23 08:25:14;;;;;;;2.43;1.83;;;19.30;61.40;;;;;;5085957;28;20679;-47
2023/04/23 08:27:44;;;;;;;6.43;2.10;;;19.30;61.40;;;;;;5067960;28;20208;-47
2023/04/23 08:30:14;;;;;;;3.07;1.90;;;19.30;61.60;;;;;;5089796;28;20197;-47
2023/04/23 08:32:50;;;;;;;4.93;2.30;;;19.40;61.30;;;;;;5076197;28;20189;-47
2023/04/23 08:35:23;;;;;;;2.83;2.23;;;19.40;61.10;;;;;;5089723;28;20676;-47
2023/04/23 08:37:52;;;;;;;2.87;1.70;;;19.50;61.20;;;;;;5097482;28;20200;-48
2023/04/23 08:40:21;;;;;;;4.30;2.07;;;19.60;60.90;;;;;;5084357;28;20209;-48
2023/04/23 08:43:23;;;;;;;3.90;2.30;;;19.60;60.50;;;;;;5090791;28;20703;-48
2023/04/23 08:46:00;;;;;;;4.50;2.00;;;19.60;60.30;;;;;;5057814;28;20895;-47
2023/04/23 08:48:32;;;;;;;5.07;2.07;;;19.60;60.50;;;;;;5078215;28;20563;-47
2023/04/23 08:51:20;;;;;;;3.63;1.90;;;19.70;60.80;;;;;;5095637;28;20263;-47
2023/04/23 08:53:54;;;;;;;8.80;2.17;;;19.70;60.80;;;;;;5094867;28;20189;-47
2023/04/23 08:56:24;;;;;;;4.77;2.23;;;19.70;60.80;;;;;;5075451;28;20267;-48
2023/04/23 08:59:06;;;;;;;3.90;2.00;;;19.70;60.60;;;;;;5069756;28;20282;-46
2023/04/23 09:01:37;;;;;;;2.87;1.60;;;19.80;60.70;;;;;;5077843;28;20193;-47
2023/04/23 09:04:08;;;;;;;5.33;2.20;;;19.80;60.60;;;;;;5089778;28;20212;-52
2023/04/23 09:06:40;;;;;;;5.37;2.23;;;19.80;60.30;;;;;;5076274;28;20212;-48
2023/04/23 09:09:31;;;;;;;3.30;1.97;;;19.90;60.00;;;;;;5081846;28;20574;-47
2023/04/23 09:12:06;;;;;;;4.37;2.00;;;19.90;59.80;;;;;;5074392;28;21033;-47
2023/04/23 09:14:38;;;;;;;4.10;1.80;;;19.90;59.40;;;;;;5095640;28;20192;-47
2023/04/23 09:17:09;;;;;;;4.87;1.90;;;19.90;59.60;;;;;;5086588;28;20220;-47
2023/04/23 09:19:40;;;;;;;4.80;2.17;;;19.90;59.60;;;;;;5092555;28;20230;-47
2023/04/23 09:22:11;;;;;;;4.77;1.83;;;19.90;59.60;;;;;;5071101;28;20216;-47
2023/04/23 09:24:43;;;;;;;6.60;2.33;;;20.00;59.00;;;;;;5072810;28;20223;-47
2023/04/23 09:27:11;;;;;;;9.13;2.20;;;19.90;58.20;;;;;;5086974;28;20199;-47
2023/04/23 09:29:43;;;;;;;5.33;1.83;;;19.90;58.60;;;;;;5088300;28;20595;-47
2023/04/23 09:32:38;;;;;;;5.13;2.10;;;19.90;58.40;;;;;;5078061;28;20224;-47
2023/04/23 09:35:09;;;;;;;5.20;2.10;;;19.90;58.50;;;;;;5068721;28;20294;-47
2023/04/23 09:37:47;;;;;;;4.40;1.73;;;19.80;58.40;;;;;;5102670;28;20190;-48
2023/04/23 09:40:18;;;;;;;7.10;2.30;;;19.80;58.40;;;;;;5089781;28;20223;-47
2023/04/23 09:43:09;;;;;;;5.97;2.10;;;19.80;58.40;;;;;;5088864;28;20586;-47
2023/04/23 09:45:48;;;;;;;5.53;2.00;;;19.80;58.60;;;;;;5085898;28;20200;-47
2023/04/23 09:48:19;;;;;;;3.50;1.90;;;19.80;58.70;;;;;;5072470;28;20225;-47
2023/04/23 09:50:55;;;;;;;4.47;1.83;;;19.80;58.60;;;;;;5076541;28;20686;-47
2023/04/23 09:53:26;;;;;;;3.97;2.13;;;19.80;58.70;;;;;;5090040;28;20540;-47
2023/04/23 09:55:56;;;;;;;3.03;1.60;;;19.80;58.30;;;;;;5093515;28;20193;-47
2023/04/23 09:58:25;;;;;;;4.47;1.70;;;19.80;58.20;;;;;;5090109;28;20231;-47
2023/04/23 10:01:09;;;;;;;4.87;2.20;;;19.90;58.10;;;;;;5085217;28;20564;-47
2023/04/23 10:03:44;;;;;;;7.23;1.60;;;19.90;58.20;;;;;;5073860;28;20282;-47
2023/04/23 10:06:16;;;;;;;5.23;2.03;;;19.90;57.40;;;;;;5072722;28;20272;-47
2023/04/23 10:09:09;;;;;;;5.87;1.90;;;19.90;57.20;;;;;;5095838;28;20220;-47
2023/04/23 10:11:42;;;;;;;5.30;1.90;;;19.90;56.80;;;;;;5095934;28;20211;-47
2023/04/23 10:14:12;;;;;;;6.17;1.70;;;19.80;56.50;;;;;;5084871;28;20188;-47
2023/04/23 10:16:46;;;;;;;5.40;1.63;;;19.80;56.60;;;;;;5087363;28;20507;-47
2023/04/23 10:19:22;;;;;;;5.33;2.07;;;19.80;56.60;;;;;;5073360;28;20204;-47
2023/04/23 10:21:57;;;;;;;3.57;1.73;;;19.70;56.90;;;;;;5106982;27;20201;-47
2023/04/23 10:24:56;;;;;;;3.33;1.60;;;19.70;56.80;;;;;;5078462;28;20208;-47
2023/04/23 10:27:30;;;;;;;5.20;1.60;;;19.70;56.80;;;;;;5072453;28;20205;-47
2023/04/23 10:30:19;;;;;;;4.33;1.50;;;19.70;56.80;;;;;;5072517;28;20270;-47
2023/04/23 10:32:52;;;;;;;5.53;2.07;;;19.60;57.10;;;;;;5079394;28;20205;-47
2023/04/23 10:35:25;;;;;;;5.10;1.90;;;19.60;57.20;;;;;;5058753;28;20229;-47
2023/04/23 10:37:54;;;;;;;6.00;2.17;;;19.60;57.30;;;;;;5091095;28;20181;-47
2023/04/23 10:40:31;;;;;;;4.43;1.70;;;19.50;57.20;;;;;;5094581;28;20232;-47
2023/04/23 10:43:01;;;;;;;2.53;1.30;;;19.50;57.10;;;;;;5071245;28;20201;-47
2023/04/23 10:45:32;;;;;;;4.87;1.30;;;19.50;56.80;;;;;;5076760;28;20199;-47
2023/04/23 10:48:03;;;;;;;6.23;1.90;;;19.50;56.80;;;;;;5081330;28;20196;-47
2023/04/23 10:50:36;;;;;;;38.77;10.50;;;19.40;56.90;;;;;;5094942;28;20197;-47
2023/04/23 10:53:30;;;;;;;292.70;67.60;;;19.40;57.70;;;;;;5089138;28;20192;-47
2023/04/23 10:56:23;;;;;;;202.07;47.93;;;19.40;57.90;;;;;;5081659;28;20262;-47
2023/04/23 10:59:09;;;;;;;149.53;37.13;;;19.40;57.90;;;;;;5088161;28;20201;-47
2023/04/23 11:01:45;;;;;;;138.10;34.37;;;19.40;58.10;;;;;;5089006;28;20188;-48
2023/04/23 11:04:27;;;;;;;106.20;28.27;;;19.40;58.20;;;;;;5078126;28;20244;-49
2023/04/23 11:07:24;;;;;;;100.53;27.00;;;19.40;58.20;;;;;;5085423;28;20192;-48
2023/04/23 11:09:53;;;;;;;89.27;22.40;;;19.40;58.30;;;;;;5090048;28;20240;-48
2023/04/23 11:12:31;;;;;;;67.97;19.00;;;19.30;58.20;;;;;;5090644;28;20201;-48
2023/04/23 11:15:14;;;;;;;64.20;18.23;;;19.30;58.20;;;;;;5091566;28;20601;-48
2023/04/23 11:18:00;;;;;;;44.70;12.77;;;19.30;58.00;;;;;;5083295;28;20189;-48
2023/04/23 11:20:42;;;;;;;35.60;10.17;;;19.30;57.60;;;;;;5095990;28;20304;-47
2023/04/23 11:23:31;;;;;;;30.80;9.23;;;19.30;57.20;;;;;;5089142;28;21008;-47
2023/04/23 11:26:05;;;;;;;34.57;8.83;;;19.30;57.50;;;;;;5066895;28;20193;-47
2023/04/23 11:28:37;;;;;;;26.47;8.40;;;19.20;57.30;;;;;;5096807;28;20220;-47
2023/04/23 11:31:09;;;;;;;32.33;7.57;;;19.30;57.40;;;;;;5051105;28;20190;-47
2023/04/23 11:33:42;;;;;;;16.50;6.53;;;19.20;57.50;;;;;;5084639;28;20204;-47
2023/04/23 11:36:32;;;;;;;17.20;4.70;;;19.30;57.50;;;;;;5090496;28;20241;-47
2023/04/23 11:39:01;;;;;;;15.43;4.90;;;19.20;57.20;;;;;;5080012;28;20239;-47
2023/04/23 11:41:38;;;;;;;12.80;4.00;;;19.20;57.40;;;;;;5094589;28;20229;-47
2023/04/23 11:44:10;;;;;;;11.37;3.90;;;19.20;57.10;;;;;;5078499;28;20222;-47
2023/04/23 11:46:38;;;;;;;11.67;4.10;;;19.20;57.20;;;;;;5090526;28;20216;-47
2023/04/23 11:49:12;;;;;;;14.20;4.33;;;19.20;57.50;;;;;;5095098;28;20209;-47
2023/04/23 11:51:45;;;;;;;12.67;3.87;;;19.20;57.70;;;;;;5093584;28;20212;-47
2023/04/23 11:54:15;;;;;;;8.60;3.07;;;19.20;57.80;;;;;;5093208;28;20199;-47
2023/04/23 11:56:46;;;;;;;7.73;3.00;;;19.20;57.70;;;;;;5075586;28;20645;-47
2023/04/23 11:59:18;;;;;;;8.37;3.10;;;19.20;57.80;;;;;;5086259;28;20197;-47
2023/04/23 12:01:50;;;;;;;8.70;2.43;;;19.20;57.70;;;;;;5101308;28;20230;-47
2023/04/23 12:04:30;;;;;;;6.87;2.77;;;19.20;57.60;;;;;;5055125;28;20219;-47
2023/04/23 12:07:07;;;;;;;7.43;2.83;;;19.20;57.30;;;;;;5075679;28;20197;-47
2023/04/23 12:09:59;;;;;;;9.17;2.67;;;19.20;57.60;;;;;;5092110;28;20216;-47
2023/04/23 12:12:42;;;;;;;6.23;2.33;;;19.20;57.40;;;;;;5081141;28;20728;-47
2023/04/23 12:15:12;;;;;;;4.93;2.33;;;19.20;57.40;;;;;;5086337;28;20208;-46
2023/04/23 12:17:49;;;;;;;4.40;2.10;;;19.20;57.40;;;;;;5102514;28;20322;-47
2023/04/23 12:20:23;;;;;;;3.07;1.80;;;19.20;57.30;;;;;;5067218;28;20188;-46
2023/04/23 12:22:53;;;;;;;5.60;1.80;;;19.20;57.20;;;;;;5100255;28;20191;-48
2023/04/23 12:25:26;;;;;;;4.83;1.70;;;19.20;57.10;;;;;;5089039;28;20193;-47
2023/04/23 12:27:59;;;;;;;5.70;2.00;;;19.20;57.10;;;;;;5077482;28;20562;-48
2023/04/23 12:30:31;;;;;;;5.63;1.73;;;19.20;56.90;;;;;;5073553;28;20715;-47
2023/04/23 12:33:05;;;;;;;2.63;1.40;;;19.20;56.80;;;;;;5070000;28;20531;-47
2023/04/23 12:35:42;;;;;;;3.20;1.57;;;19.20;56.60;;;;;;5071691;28;20229;-48
2023/04/23 12:38:26;;;;;;;4.00;1.50;;;19.20;56.50;;;;;;5079812;28;20263;-48
2023/04/23 12:40:58;;;;;;;5.33;1.87;;;19.20;56.70;;;;;;5049445;28;20625;-47
2023/04/23 12:43:28;;;;;;;2.57;1.27;;;19.20;56.50;;;;;;5040341;28;20753;-47
2023/04/23 12:45:59;;;;;;;2.87;1.33;;;19.20;56.60;;;;;;5071089;28;20211;-47
2023/04/23 12:48:30;;;;;;;2.70;1.40;;;19.20;56.20;;;;;;5069804;28;20181;-47
2023/04/23 12:51:05;;;;;;;3.27;1.50;;;19.20;56.30;;;;;;5068925;28;20224;-47
2023/04/23 12:53:36;;;;;;;3.53;1.57;;;19.20;56.10;;;;;;5070406;28;20181;-47
2023/04/23 12:56:08;;;;;;;4.73;1.57;;;19.20;56.20;;;;;;5067037;28;20198;-47
2023/04/23 12:58:38;;;;;;;3.77;1.50;;;19.20;55.60;;;;;;5061851;28;20186;-47
2023/04/23 13:01:10;;;;;;;3.83;1.40;;;19.20;55.50;;;;;;5056579;28;20221;-47
2023/04/23 13:03:40;;;;;;;2.07;1.20;;;19.30;55.40;;;;;;5073977;28;20283;-47
2023/04/23 13:06:11;;;;;;;4.53;1.40;;;19.20;55.30;;;;;;5074512;28;20198;-47
2023/04/23 13:08:42;;;;;;;3.73;1.20;;;19.20;55.30;;;;;;5068507;28;20206;-47
2023/04/23 13:11:12;;;;;;;3.30;1.20;;;19.30;55.50;;;;;;5067092;28;20208;-47
2023/04/23 13:13:55;;;;;;;4.83;1.50;;;19.30;55.70;;;;;;5069340;28;20213;-47